Time;durP1;ratioP1;P1;durP2;ratioP2;P2;SDS_P1;SDS_P2;PMS_P1;PMS_P2;Temp;Humidity;BMP_temperature;BMP_pressure;BME280_temperature;BME280_humidity;BME280_pressure;Samples;Min_cycle;Max_cycle;Signal;HPM_P1;HPM_P2
2023/06/23 00:00:11;;;;;;;3.83;2.78;;;;;;;18.17;100.00;96982.72;4956983;29;20202;-58
2023/06/23 00:02:38;;;;;;;2.72;2.53;;;;;;;18.05;100.00;96968.09;4940130;29;20210;-60
2023/06/23 00:05:06;;;;;;;2.70;2.50;;;;;;;18.06;100.00;96969.75;4956877;29;20214;-59
2023/06/23 00:07:33;;;;;;;2.53;2.30;;;;;;;18.00;100.00;96977.66;4964390;28;20214;-58
2023/06/23 00:09:59;;;;;;;3.75;2.50;;;;;;;17.99;100.00;96974.19;4956699;29;20328;-59
2023/06/23 00:12:26;;;;;;;2.97;2.42;;;;;;;17.99;100.00;96990.25;4959242;29;20206;-58
2023/06/23 00:14:54;;;;;;;2.67;2.42;;;;;;;18.01;100.00;96987.38;4962965;29;20599;-58
2023/06/23 00:17:20;;;;;;;2.72;2.53;;;;;;;17.95;100.00;96994.28;4960164;29;20274;-59
2023/06/23 00:19:47;;;;;;;3.00;2.67;;;;;;;17.96;100.00;96982.53;4952108;29;20233;-58
2023/06/23 00:22:13;;;;;;;3.10;2.65;;;;;;;18.02;100.00;96989.88;4957401;29;20207;-58
2023/06/23 00:24:40;;;;;;;2.95;2.35;;;;;;;18.01;100.00;96982.84;4955478;29;20215;-60
2023/06/23 00:27:08;;;;;;;2.90;2.70;;;;;;;18.02;100.00;96979.16;4949726;29;20240;-59
2023/06/23 00:29:35;;;;;;;2.78;2.58;;;;;;;17.98;100.00;96974.34;4959677;29;20242;-59
2023/06/23 00:32:04;;;;;;;2.90;2.70;;;;;;;17.99;100.00;96973.34;4956322;29;20222;-58
2023/06/23 00:34:31;;;;;;;3.83;2.75;;;;;;;17.96;100.00;96961.13;4957413;29;20240;-58
2023/06/23 00:36:58;;;;;;;2.85;2.65;;;;;;;17.98;100.00;96963.66;4958082;28;20218;-58
2023/06/23 00:39:24;;;;;;;2.78;2.58;;;;;;;18.02;100.00;96968.47;4953472;29;20628;-59
2023/06/23 00:41:51;;;;;;;2.78;2.50;;;;;;;18.00;100.00;96965.13;4954490;28;20625;-59
2023/06/23 00:44:17;;;;;;;2.60;2.40;;;;;;;17.99;100.00;96976.84;4955398;29;20632;-58
2023/06/23 00:46:45;;;;;;;3.25;2.78;;;;;;;17.91;100.00;96966.22;4955033;28;20206;-58
2023/06/23 00:49:14;;;;;;;3.75;3.08;;;;;;;17.90;100.00;96967.22;4961730;29;20230;-58
2023/06/23 00:51:41;;;;;;;3.20;2.90;;;;;;;17.95;100.00;96962.16;4959208;29;20203;-58
2023/06/23 00:54:08;;;;;;;2.63;2.45;;;;;;;17.95;100.00;96964.84;4960999;29;20221;-58
2023/06/23 00:56:35;;;;;;;5.05;2.65;;;;;;;17.94;100.00;96965.00;4964347;28;20221;-58
2023/06/23 00:59:03;;;;;;;3.13;2.92;;;;;;;17.94;100.00;96959.66;4968061;28;20211;-58
2023/06/23 01:01:32;;;;;;;3.08;2.72;;;;;;;17.92;100.00;96968.69;4967634;29;20594;-59
2023/06/23 01:04:00;;;;;;;2.65;2.45;;;;;;;17.92;100.00;96967.06;4969725;29;20278;-58
2023/06/23 01:06:37;;;;;;;3.95;2.83;;;;;;;17.89;100.00;96973.56;4977930;29;20275;-58
2023/06/23 01:09:12;;;;;;;3.03;2.83;;;;;;;17.85;100.00;96966.94;4957592;28;20655;-59
2023/06/23 01:11:43;;;;;;;3.10;2.85;;;;;;;17.85;100.00;96965.06;4966819;29;20305;-59
2023/06/23 01:14:17;;;;;;;2.70;2.30;;;;;;;17.90;100.00;96961.88;4963869;29;20249;-58
2023/06/23 01:16:48;;;;;;;2.65;2.45;;;;;;;17.90;100.00;96965.38;4969233;29;20221;-58
2023/06/23 01:19:23;;;;;;;4.72;2.72;;;;;;;17.85;100.00;96967.75;4958470;29;20656;-63
2023/06/23 01:22:04;;;;;;;2.53;2.40;;;;;;;17.90;100.00;96970.72;4958689;29;20206;-58
2023/06/23 01:24:41;;;;;;;2.80;2.60;;;;;;;17.92;100.00;96973.25;4959985;29;20695;-59
2023/06/23 01:27:22;;;;;;;3.10;2.72;;;;;;;17.89;100.00;96976.25;4959936;29;20202;-59
2023/06/23 01:29:53;;;;;;;3.38;2.58;;;;;;;17.79;100.00;96973.84;4955742;29;20675;-59
2023/06/23 01:32:22;;;;;;;3.22;2.92;;;;;;;17.82;100.00;96978.81;4955853;29;20206;-58
2023/06/23 01:34:52;;;;;;;4.05;2.40;;;;;;;17.86;100.00;96979.28;4958628;29;20210;-59
2023/06/23 01:37:21;;;;;;;2.67;2.47;;;;;;;17.83;100.00;96976.97;4942815;29;20617;-59
2023/06/23 01:39:53;;;;;;;2.75;2.55;;;;;;;17.83;100.00;96975.13;4959750;29;20210;-59
2023/06/23 01:42:21;;;;;;;3.47;3.17;;;;;;;17.77;100.00;96986.56;4957640;28;20635;-58
2023/06/23 01:44:54;;;;;;;5.28;3.17;;;;;;;17.82;100.00;96986.84;4966945;28;20202;-58
2023/06/23 01:47:25;;;;;;;2.60;2.50;;;;;;;17.81;100.00;96981.69;4959565;28;20590;-58
2023/06/23 01:49:52;;;;;;;4.50;3.15;;;;;;;17.81;100.00;96995.91;4959859;28;20214;-59
2023/06/23 01:52:19;;;;;;;2.70;2.50;;;;;;;17.78;100.00;96993.56;4958620;29;20211;-58
2023/06/23 01:54:46;;;;;;;2.90;2.60;;;;;;;17.81;100.00;96993.22;4958258;28;20518;-59
2023/06/23 01:57:15;;;;;;;3.00;2.80;;;;;;;17.72;100.00;96994.28;4957768;29;20203;-58
2023/06/23 01:59:43;;;;;;;3.25;2.97;;;;;;;17.68;100.00;96992.13;4957926;29;20222;-59
2023/06/23 02:02:12;;;;;;;3.03;2.83;;;;;;;17.68;100.00;97003.66;4962855;28;20210;-59
2023/06/23 02:04:42;;;;;;;3.90;2.80;;;;;;;17.73;100.00;96997.78;4958355;29;20206;-59
2023/06/23 02:07:08;;;;;;;3.15;2.85;;;;;;;17.71;100.00;97005.19;4958554;29;20651;-59
2023/06/23 02:09:37;;;;;;;3.13;2.92;;;;;;;17.71;100.00;97007.84;4958319;29;20234;-59
2023/06/23 02:12:06;;;;;;;2.92;2.67;;;;;;;17.61;100.00;97015.25;4958116;29;20214;-59
2023/06/23 02:14:34;;;;;;;3.28;2.80;;;;;;;17.67;100.00;97007.38;4952834;29;20702;-58
2023/06/23 02:17:09;;;;;;;3.17;2.47;;;;;;;17.57;100.00;97009.44;4958327;29;20537;-58
2023/06/23 02:19:41;;;;;;;2.53;2.33;;;;;;;17.51;100.00;97019.97;4958739;29;20209;-58
2023/06/23 02:22:09;;;;;;;2.70;2.50;;;;;;;17.50;100.00;97021.00;4958405;29;20544;-59
2023/06/23 02:24:36;;;;;;;3.05;2.25;;;;;;;17.47;100.00;97024.00;4958557;29;20253;-58
2023/06/23 02:27:03;;;;;;;2.60;2.40;;;;;;;17.49;100.00;97025.53;4958049;29;20688;-59
2023/06/23 02:29:30;;;;;;;2.50;2.40;;;;;;;17.52;100.00;97030.50;4958210;29;20553;-58
2023/06/23 02:31:57;;;;;;;2.70;2.50;;;;;;;17.48;100.00;97045.25;4958481;29;20214;-59
2023/06/23 02:34:24;;;;;;;3.10;2.20;;;;;;;17.37;100.00;97045.63;4958261;29;20564;-58
2023/06/23 02:36:54;;;;;;;2.88;2.45;;;;;;;17.39;100.00;97051.66;4958259;29;20302;-58
2023/06/23 02:39:21;;;;;;;2.08;1.98;;;;;;;17.34;100.00;97051.34;4958375;29;20222;-59
2023/06/23 02:41:50;;;;;;;2.20;2.10;;;;;;;17.28;100.00;97047.53;4957505;29;20218;-58
2023/06/23 02:44:19;;;;;;;1.98;1.75;;;;;;;17.34;100.00;97054.00;4957194;29;20214;-59
2023/06/23 02:46:49;;;;;;;2.35;1.92;;;;;;;17.31;100.00;97059.72;4958645;28;20218;-58
2023/06/23 02:49:19;;;;;;;2.78;1.48;;;;;;;17.26;100.00;97056.72;4954546;29;20218;-59
2023/06/23 02:51:47;;;;;;;1.80;1.70;;;;;;;17.27;100.00;97059.22;4956823;29;20202;-58
2023/06/23 02:54:18;;;;;;;2.00;1.90;;;;;;;17.25;100.00;97073.78;4957521;28;20219;-58
2023/06/23 02:56:46;;;;;;;2.10;2.00;;;;;;;17.30;100.00;97072.22;4953459;29;20245;-59
2023/06/23 02:59:13;;;;;;;2.15;1.92;;;;;;;17.22;100.00;97076.78;4957279;29;20228;-58
2023/06/23 03:01:42;;;;;;;2.30;2.10;;;;;;;17.23;100.00;97083.78;4957743;29;20221;-58
2023/06/23 03:04:08;;;;;;;2.30;2.20;;;;;;;17.20;100.00;97089.50;4957885;28;20269;-57
2023/06/23 03:06:35;;;;;;;2.00;1.90;;;;;;;17.19;100.00;97096.66;4957051;29;20820;-57
2023/06/23 03:09:06;;;;;;;2.67;2.47;;;;;;;17.21;100.00;97107.19;4958004;29;20237;-58
2023/06/23 03:11:35;;;;;;;2.15;2.05;;;;;;;17.24;100.00;97112.19;4978361;29;20195;-58
2023/06/23 03:14:03;;;;;;;3.08;2.88;;;;;;;17.19;100.00;97119.88;4974860;29;20238;-58
2023/06/23 03:16:34;;;;;;;3.30;3.00;;;;;;;17.17;100.00;97128.09;4966508;29;20223;-58
2023/06/23 03:19:07;;;;;;;3.17;2.30;;;;;;;17.21;100.00;97128.59;4956742;29;20207;-57
2023/06/23 03:21:37;;;;;;;3.10;2.75;;;;;;;17.18;100.00;97131.59;4959263;29;20199;-58
2023/06/23 03:24:06;;;;;;;3.20;2.90;;;;;;;17.21;100.00;97133.94;4965866;28;20206;-58
2023/06/23 03:26:36;;;;;;;3.45;3.15;;;;;;;17.19;100.00;97138.59;4969199;29;20186;-59
2023/06/23 03:29:06;;;;;;;3.30;3.00;;;;;;;17.24;100.00;97144.28;4968485;29;20254;-58
2023/06/23 03:31:33;;;;;;;3.58;3.33;;;;;;;17.28;100.00;97148.28;4967477;29;20218;-60
2023/06/23 03:34:00;;;;;;;4.03;3.53;;;;;;;17.20;100.00;97148.28;4956802;28;20210;-59
2023/06/23 03:36:27;;;;;;;3.70;3.50;;;;;;;17.14;100.00;97157.00;4957466;29;20580;-57
2023/06/23 03:39:01;;;;;;;3.63;3.38;;;;;;;17.20;100.00;97158.97;4957055;29;20210;-58
2023/06/23 03:41:29;;;;;;;4.25;3.95;;;;;;;17.19;100.00;97162.66;4957640;29;20217;-58
2023/06/23 03:43:59;;;;;;;4.25;3.95;;;;;;;17.22;100.00;97162.31;4938769;29;20218;-58
2023/06/23 03:46:29;;;;;;;4.65;4.32;;;;;;;17.26;100.00;97168.97;4962470;28;20243;-58
2023/06/23 03:48:58;;;;;;;5.57;5.07;;;;;;;17.24;100.00;97179.03;4956167;29;20221;-58
2023/06/23 03:51:26;;;;;;;14.13;12.70;;;;;;;17.28;100.00;97183.03;4956454;29;20250;-58
2023/06/23 03:53:54;;;;;;;5.10;4.70;;;;;;;17.29;100.00;97184.66;4957363;29;20217;-58
2023/06/23 03:56:21;;;;;;;5.30;4.90;;;;;;;17.37;100.00;97188.16;4957018;28;20207;-58
2023/06/23 03:58:52;;;;;;;5.35;4.85;;;;;;;17.33;100.00;97194.03;4957213;29;20531;-58
2023/06/23 04:01:22;;;;;;;4.97;4.53;;;;;;;17.40;100.00;97189.66;4956819;29;20206;-58
2023/06/23 04:03:50;;;;;;;5.43;5.00;;;;;;;17.32;100.00;97200.41;4956712;29;20643;-58
2023/06/23 04:06:18;;;;;;;5.90;5.43;;;;;;;17.20;100.00;97199.91;4956571;28;20214;-58
2023/06/23 04:08:47;;;;;;;5.88;5.43;;;;;;;17.23;100.00;97204.06;4939896;29;20647;-57
2023/06/23 04:11:14;;;;;;;5.72;5.22;;;;;;;17.29;100.00;97200.72;4953843;29;20214;-57
2023/06/23 04:13:41;;;;;;;5.80;5.30;;;;;;;17.36;100.00;97201.69;4955532;29;20283;-58
2023/06/23 04:16:08;;;;;;;6.03;5.63;;;;;;;17.44;100.00;97209.69;4956626;28;20542;-58
2023/06/23 04:18:37;;;;;;;6.03;5.50;;;;;;;17.46;100.00;97218.41;4957106;29;20214;-58
2023/06/23 04:21:05;;;;;;;6.28;5.72;;;;;;;17.43;100.00;97218.72;4949382;29;20199;-58
2023/06/23 04:23:38;;;;;;;6.82;5.95;;;;;;;17.36;100.00;97229.28;4956520;29;20210;-58
2023/06/23 04:26:06;;;;;;;6.88;6.35;;;;;;;17.47;100.00;97236.09;4957021;29;20230;-62
2023/06/23 04:28:34;;;;;;;7.00;6.50;;;;;;;17.43;100.00;97224.06;4951517;29;20241;-58
2023/06/23 04:31:03;;;;;;;5.70;5.28;;;;;;;17.47;100.00;97225.41;4956916;29;20231;-58
2023/06/23 04:33:30;;;;;;;5.93;5.43;;;;;;;17.49;100.00;97235.94;4956761;29;20258;-58
2023/06/23 04:36:02;;;;;;;6.70;6.20;;;;;;;17.48;100.00;97248.47;4956616;29;20206;-58
2023/06/23 04:38:33;;;;;;;6.93;6.32;;;;;;;17.36;100.00;97244.47;4939556;29;20241;-58
2023/06/23 04:41:01;;;;;;;7.35;6.65;;;;;;;17.38;100.00;97254.00;4956234;29;20198;-58
2023/06/23 04:43:32;;;;;;;7.13;6.43;;;;;;;17.38;100.00;97261.19;4955829;29;20569;-58
2023/06/23 04:46:01;;;;;;;7.35;6.75;;;;;;;17.35;100.00;97264.22;4958395;28;20210;-58
2023/06/23 04:48:31;;;;;;;6.90;6.32;;;;;;;17.41;100.00;97268.88;4957621;28;20553;-58
2023/06/23 04:50:59;;;;;;;7.55;6.88;;;;;;;17.46;100.00;97265.69;4956254;29;20583;-58
2023/06/23 04:53:39;;;;;;;7.50;6.90;;;;;;;17.49;100.00;97271.53;4950195;29;20222;-58
2023/06/23 04:56:07;;;;;;;7.75;7.15;;;;;;;17.41;100.00;97263.53;4951749;29;20214;-58
2023/06/23 04:58:37;;;;;;;7.80;7.20;;;;;;;17.37;100.00;97271.06;4948330;29;20214;-57
2023/06/23 05:01:07;;;;;;;8.30;7.55;;;;;;;17.30;100.00;97271.91;4956071;29;20211;-57
2023/06/23 05:03:35;;;;;;;7.97;7.28;;;;;;;17.28;100.00;97273.91;4956743;29;20277;-57
2023/06/23 05:06:06;;;;;;;8.05;7.35;;;;;;;17.28;100.00;97287.28;4956901;29;20258;-58
2023/06/23 05:08:33;;;;;;;7.85;7.05;;;;;;;17.36;100.00;97287.25;4939823;29;20211;-57
2023/06/23 05:11:05;;;;;;;7.85;7.25;;;;;;;17.34;100.00;97283.94;4956038;29;20667;-56
2023/06/23 05:13:34;;;;;;;8.05;7.43;;;;;;;17.39;100.00;97281.59;4955224;29;20245;-57
2023/06/23 05:16:02;;;;;;;8.20;7.57;;;;;;;17.45;100.00;97286.25;4956009;29;20285;-57
2023/06/23 05:18:29;;;;;;;9.30;8.43;;;;;;;17.48;100.00;97291.25;4976260;28;20210;-58
2023/06/23 05:21:02;;;;;;;9.23;8.43;;;;;;;17.47;100.00;97288.72;4978172;29;20190;-57
2023/06/23 05:23:30;;;;;;;8.93;8.10;;;;;;;17.48;100.00;97285.06;4969435;29;20255;-58
2023/06/23 05:25:58;;;;;;;8.75;8.05;;;;;;;17.58;100.00;97291.94;4943971;29;20654;-58
2023/06/23 05:28:26;;;;;;;9.05;8.35;;;;;;;17.59;100.00;97290.09;4946057;29;20219;-57
2023/06/23 05:30:56;;;;;;;8.57;7.88;;;;;;;17.60;100.00;97284.59;4957316;29;20302;-57
2023/06/23 05:33:23;;;;;;;8.80;8.10;;;;;;;17.65;100.00;97287.56;4950941;29;20210;-57
2023/06/23 05:35:50;;;;;;;9.35;8.60;;;;;;;17.60;100.00;97284.59;4956564;29;20528;-58
2023/06/23 05:38:18;;;;;;;8.88;8.05;;;;;;;17.70;100.00;97289.72;4959092;29;20207;-57
2023/06/23 05:40:46;;;;;;;9.52;8.73;;;;;;;17.71;100.00;97284.19;4946979;29;20569;-58
2023/06/23 05:43:13;;;;;;;10.32;9.45;;;;;;;17.66;100.00;97283.88;4949102;29;20199;-58
2023/06/23 05:45:40;;;;;;;8.88;8.10;;;;;;;17.73;100.00;97276.84;4959665;29;20218;-58
2023/06/23 05:48:11;;;;;;;9.50;8.70;;;;;;;17.89;100.00;97283.97;4959053;29;20283;-58
2023/06/23 05:50:39;;;;;;;9.20;8.40;;;;;;;18.02;100.00;97288.78;4957617;29;20229;-58
2023/06/23 05:53:08;;;;;;;8.73;7.95;;;;;;;18.16;100.00;97291.56;4956345;29;20647;-58
2023/06/23 05:55:37;;;;;;;9.38;8.43;;;;;;;18.39;100.00;97283.56;4959004;29;20210;-59
2023/06/23 05:58:08;;;;;;;9.52;8.63;;;;;;;18.48;100.00;97284.38;4958349;29;20214;-59
2023/06/23 06:00:38;;;;;;;10.27;9.38;;;;;;;18.61;100.00;97290.00;4959613;29;20206;-59
2023/06/23 06:03:08;;;;;;;8.35;7.65;;;;;;;18.75;100.00;97292.75;4958821;29;20234;-58
2023/06/23 06:05:35;;;;;;;9.07;8.38;;;;;;;18.89;100.00;97283.94;4957538;29;20627;-58
2023/06/23 06:08:06;;;;;;;9.75;8.95;;;;;;;18.93;100.00;97286.25;4955812;29;20209;-59
2023/06/23 06:10:34;;;;;;;9.32;8.52;;;;;;;19.15;100.00;97288.94;4958616;29;20317;-59
2023/06/23 06:13:02;;;;;;;9.50;8.68;;;;;;;19.26;100.00;97287.66;4957622;29;20234;-58
2023/06/23 06:15:32;;;;;;;10.25;9.23;;;;;;;19.23;100.00;97296.06;4958243;29;20541;-59
2023/06/23 06:18:06;;;;;;;10.60;9.48;;;;;;;19.19;100.00;97297.44;4958843;29;20202;-59
2023/06/23 06:20:35;;;;;;;12.57;10.23;;;;;;;19.23;100.00;97296.06;4959170;29;20202;-59
2023/06/23 06:23:03;;;;;;;10.45;9.43;;;;;;;19.28;100.00;97294.50;4958726;29;20632;-58
2023/06/23 06:25:32;;;;;;;11.82;10.73;;;;;;;19.21;100.00;97298.09;4963870;29;20519;-59
2023/06/23 06:27:59;;;;;;;10.80;9.90;;;;;;;19.22;100.00;97300.59;4967001;29;20294;-59
2023/06/23 06:30:29;;;;;;;10.38;9.48;;;;;;;19.24;100.00;97297.72;4975994;29;20258;-59
2023/06/23 06:32:58;;;;;;;10.80;9.90;;;;;;;19.27;100.00;97308.13;4956603;28;20287;-59
2023/06/23 06:35:25;;;;;;;10.38;9.48;;;;;;;19.28;100.00;97315.13;4960450;29;20202;-58
2023/06/23 06:37:53;;;;;;;10.85;9.85;;;;;;;19.36;100.00;97312.38;4957855;29;20293;-59
2023/06/23 06:40:24;;;;;;;11.68;10.48;;;;;;;19.34;100.00;97307.19;4957564;28;20210;-59
2023/06/23 06:42:53;;;;;;;9.90;9.00;;;;;;;19.46;100.00;97314.81;4957556;29;20198;-59
2023/06/23 06:45:20;;;;;;;9.90;9.10;;;;;;;19.54;100.00;97304.88;4957932;29;20302;-58
2023/06/23 06:47:48;;;;;;;11.88;10.77;;;;;;;19.56;100.00;97313.56;4957694;28;20206;-58
2023/06/23 06:50:17;;;;;;;13.68;11.98;;;;;;;19.44;100.00;97312.34;4957998;29;20314;-59
2023/06/23 06:52:45;;;;;;;13.75;12.38;;;;;;;19.44;100.00;97312.34;4955507;29;20514;-58
2023/06/23 06:55:18;;;;;;;13.00;11.90;;;;;;;19.28;100.00;97309.75;4946150;29;20647;-59
2023/06/23 06:57:47;;;;;;;11.55;10.50;;;;;;;19.34;100.00;97311.75;4946515;29;20238;-58
2023/06/23 07:00:16;;;;;;;11.98;10.80;;;;;;;19.37;100.00;97319.41;4955946;29;20202;-58
2023/06/23 07:02:43;;;;;;;13.07;11.77;;;;;;;19.23;100.00;97317.53;4948915;29;20210;-58
2023/06/23 07:05:10;;;;;;;11.57;10.57;;;;;;;19.34;100.00;97322.47;4951742;29;20249;-58
2023/06/23 07:07:39;;;;;;;10.98;10.07;;;;;;;19.40;100.00;97324.41;4943441;29;20660;-59
2023/06/23 07:10:06;;;;;;;13.60;12.38;;;;;;;19.44;100.00;97328.44;4946587;29;20635;-59
2023/06/23 07:12:33;;;;;;;14.05;12.75;;;;;;;19.30;100.00;97327.38;4956549;29;20211;-57
2023/06/23 07:15:00;;;;;;;13.20;12.00;;;;;;;19.36;100.00;97328.47;4957013;28;20324;-59
2023/06/23 07:17:26;;;;;;;13.05;11.48;;;;;;;19.49;100.00;97333.25;4957699;29;20210;-58
2023/06/23 07:19:53;;;;;;;13.65;12.30;;;;;;;19.76;100.00;97325.44;4957124;29;20210;-59
2023/06/23 07:22:19;;;;;;;13.00;11.70;;;;;;;20.12;100.00;97325.50;4953426;29;20214;-57
2023/06/23 07:24:47;;;;;;;13.48;12.27;;;;;;;20.47;100.00;97339.25;4957409;29;20335;-59
2023/06/23 07:27:16;;;;;;;12.68;11.57;;;;;;;21.04;100.00;97323.13;4959979;29;20646;-59
2023/06/23 07:29:42;;;;;;;13.55;12.35;;;;;;;21.23;100.00;97338.66;4977320;28;20183;-61
2023/06/23 07:32:09;;;;;;;13.45;12.10;;;;;;;21.33;100.00;97340.00;4965804;29;20227;-59
2023/06/23 07:34:36;;;;;;;12.75;11.52;;;;;;;21.40;100.00;97337.34;4968313;28;20611;-59
2023/06/23 07:37:02;;;;;;;13.98;12.50;;;;;;;21.29;100.00;97335.22;4955509;29;20590;-59
2023/06/23 07:39:29;;;;;;;12.30;11.20;;;;;;;21.50;100.00;97337.03;4951998;29;20214;-59
2023/06/23 07:41:56;;;;;;;13.30;12.20;;;;;;;21.44;100.00;97344.00;4957474;29;20214;-59
2023/06/23 07:44:23;;;;;;;13.98;12.68;;;;;;;21.13;100.00;97340.84;4956904;29;20210;-58
2023/06/23 07:46:49;;;;;;;13.05;11.85;;;;;;;21.33;100.00;97341.84;4958119;28;20529;-59
2023/06/23 07:49:16;;;;;;;12.57;11.48;;;;;;;21.35;100.00;97350.56;4956543;29;20225;-58
2023/06/23 07:51:42;;;;;;;11.88;10.63;;;;;;;21.22;100.00;97337.81;4956713;28;20675;-58
2023/06/23 07:54:10;;;;;;;14.88;13.40;;;;;;;21.46;100.00;97341.97;4956860;29;20210;-58
2023/06/23 07:56:36;;;;;;;13.30;12.15;;;;;;;21.31;96.43;97350.13;4956223;29;20210;-58
2023/06/23 07:59:04;;;;;;;11.27;10.27;;;;;;;21.70;100.00;97341.56;4953960;29;20218;-59
2023/06/23 08:01:32;;;;;;;14.10;12.73;;;;;;;22.05;100.00;97344.28;4951541;29;20207;-59
2023/06/23 08:03:58;;;;;;;12.52;11.43;;;;;;;22.59;100.00;97347.91;4942036;29;20207;-58
2023/06/23 08:06:25;;;;;;;12.68;11.57;;;;;;;22.60;94.68;97349.56;4948759;29;20599;-58
2023/06/23 08:08:51;;;;;;;11.15;10.15;;;;;;;22.69;94.61;97351.09;4939926;29;20230;-58
2023/06/23 08:11:18;;;;;;;13.18;11.98;;;;;;;22.39;88.68;97359.63;4944714;29;20234;-58
2023/06/23 08:13:45;;;;;;;10.93;10.00;;;;;;;22.27;89.03;97360.19;4947308;29;20230;-58
2023/06/23 08:16:12;;;;;;;12.48;11.38;;;;;;;22.41;90.98;97353.00;4956821;29;20198;-58
2023/06/23 08:18:39;;;;;;;10.55;9.63;;;;;;;22.48;91.60;97351.19;4940190;29;20215;-59
2023/06/23 08:21:05;;;;;;;9.30;8.50;;;;;;;22.46;97.21;97355.91;4937295;29;20267;-59
2023/06/23 08:23:32;;;;;;;11.93;10.63;;;;;;;22.04;89.67;97356.94;4943903;29;20659;-59
2023/06/23 08:25:58;;;;;;;11.68;10.57;;;;;;;22.06;93.32;97356.75;4949296;29;20298;-59
2023/06/23 08:28:25;;;;;;;10.48;9.57;;;;;;;21.61;91.51;97363.44;4956318;29;20225;-59
2023/06/23 08:30:51;;;;;;;10.20;9.20;;;;;;;21.48;92.41;97366.81;4955935;29;20679;-58
2023/06/23 08:33:19;;;;;;;9.15;8.25;;;;;;;21.41;94.15;97368.63;4956100;29;20516;-58
2023/06/23 08:35:47;;;;;;;10.43;9.43;;;;;;;21.17;93.55;97377.09;4949722;29;20210;-59
2023/06/23 08:38:14;;;;;;;9.00;8.30;;;;;;;21.20;97.66;97374.00;4949716;29;20214;-58
2023/06/23 08:40:41;;;;;;;10.35;9.40;;;;;;;20.96;96.10;97382.41;4956519;29;20214;-58
2023/06/23 08:43:10;;;;;;;11.15;9.25;;;;;;;21.04;99.87;97380.44;4955066;29;20217;-58
2023/06/23 08:45:43;;;;;;;10.45;9.40;;;;;;;21.08;98.75;97386.28;4956611;29;20203;-58
2023/06/23 08:48:10;;;;;;;10.40;9.50;;;;;;;21.25;98.46;97382.34;4953615;29;20206;-58
2023/06/23 08:50:39;;;;;;;11.55;10.55;;;;;;;21.51;100.00;97377.19;4956802;29;20246;-58
2023/06/23 08:53:05;;;;;;;9.50;8.60;;;;;;;21.54;96.29;97379.50;4956295;29;20576;-57
2023/06/23 08:55:35;;;;;;;9.32;8.52;;;;;;;21.69;95.71;97391.03;4956495;28;20207;-58
2023/06/23 08:58:02;;;;;;;11.43;10.13;;;;;;;21.58;91.25;97383.47;4955908;29;20199;-58
2023/06/23 09:00:29;;;;;;;9.23;8.13;;;;;;;21.75;95.01;97381.34;4955960;29;20647;-59
2023/06/23 09:02:55;;;;;;;10.07;9.18;;;;;;;21.58;93.39;97390.72;4956888;28;20218;-59
2023/06/23 09:05:22;;;;;;;8.95;8.15;;;;;;;21.80;96.92;97390.50;4960265;29;20265;-58
2023/06/23 09:07:50;;;;;;;8.50;7.82;;;;;;;21.95;93.10;97392.31;4958949;29;20225;-58
2023/06/23 09:10:17;;;;;;;7.40;6.80;;;;;;;22.10;91.68;97388.50;4953916;29;20206;-58
2023/06/23 09:13:06;;;;;;;8.25;7.50;;;;;;;22.22;88.46;97386.88;4963332;29;20222;-58
2023/06/23 09:15:33;;;;;;;8.10;7.32;;;;;;;22.20;88.02;97390.81;4959398;29;20250;-59
2023/06/23 09:18:00;;;;;;;7.43;6.82;;;;;;;22.10;86.65;97385.78;4947729;29;20211;-58
2023/06/23 09:20:27;;;;;;;8.27;7.50;;;;;;;22.09;82.65;97381.44;4967769;29;20209;-59
2023/06/23 09:22:56;;;;;;;9.13;6.85;;;;;;;22.10;86.75;97393.03;4964146;29;20215;-59
2023/06/23 09:25:37;;;;;;;6.65;5.90;;;;;;;22.13;87.85;97392.63;4960317;29;20206;-58
2023/06/23 09:28:04;;;;;;;6.38;5.85;;;;;;;22.07;84.47;97398.81;4949633;29;20207;-58
2023/06/23 09:30:35;;;;;;;7.22;6.45;;;;;;;22.15;85.84;97395.97;4959374;29;20213;-59
2023/06/23 09:33:04;;;;;;;6.60;6.05;;;;;;;22.19;84.72;97397.22;4959550;28;20587;-58
2023/06/23 09:35:34;;;;;;;8.05;7.45;;;;;;;22.33;80.21;97396.28;4958530;28;20202;-57
2023/06/23 09:38:03;;;;;;;7.30;6.53;;;;;;;22.63;81.20;97400.41;4959604;29;20266;-58
2023/06/23 09:40:30;;;;;;;7.45;6.68;;;;;;;22.91;83.84;97386.03;4960766;29;20203;-58
2023/06/23 09:42:57;;;;;;;6.65;6.10;;;;;;;23.27;81.51;97395.47;4964847;29;20214;-58
2023/06/23 09:45:24;;;;;;;7.10;6.20;;;;;;;23.43;80.27;97396.97;4966941;29;20198;-59
2023/06/23 09:47:51;;;;;;;7.18;6.50;;;;;;;23.42;80.78;97395.31;4970878;28;20225;-59
2023/06/23 09:50:20;;;;;;;7.93;7.20;;;;;;;23.34;79.33;97397.34;4972328;29;20611;-61
2023/06/23 09:52:48;;;;;;;6.40;5.85;;;;;;;23.18;78.13;97395.84;4961195;29;20282;-58
2023/06/23 09:55:17;;;;;;;6.80;6.13;;;;;;;23.11;78.12;97406.63;4961964;29;20650;-58
2023/06/23 09:57:44;;;;;;;6.93;6.30;;;;;;;23.09;78.98;97402.47;4955578;29;20214;-60
2023/06/23 10:00:11;;;;;;;6.45;5.85;;;;;;;23.33;78.43;97401.91;4953327;29;20207;-58
2023/06/23 10:02:39;;;;;;;8.32;7.60;;;;;;;23.40;73.71;97402.75;4953656;29;20642;-58
2023/06/23 10:05:07;;;;;;;6.93;6.43;;;;;;;23.43;77.16;97402.38;4940655;29;20230;-59
2023/06/23 10:07:34;;;;;;;7.47;6.80;;;;;;;23.29;77.81;97400.66;4953235;29;20206;-58
2023/06/23 10:10:04;;;;;;;7.53;6.95;;;;;;;23.07;78.36;97402.66;4956673;29;20659;-58
2023/06/23 10:12:33;;;;;;;7.28;6.78;;;;;;;22.94;79.19;97408.03;4954193;29;20241;-58
2023/06/23 10:15:00;;;;;;;7.55;6.95;;;;;;;23.04;80.15;97410.34;4944695;29;20230;-58
2023/06/23 10:17:27;;;;;;;7.28;6.68;;;;;;;23.18;78.72;97401.25;4966417;29;20198;-58
2023/06/23 10:19:55;;;;;;;7.65;6.95;;;;;;;23.40;79.67;97396.53;4960792;29;20210;-58
2023/06/23 10:22:24;;;;;;;7.70;7.10;;;;;;;23.67;76.52;97393.66;4958291;29;20198;-58
2023/06/23 10:24:52;;;;;;;7.00;6.32;;;;;;;23.98;76.08;97397.63;4953658;29;20195;-58
2023/06/23 10:27:23;;;;;;;6.97;6.38;;;;;;;24.09;76.58;97397.00;4958232;28;20198;-60
2023/06/23 10:29:52;;;;;;;7.20;6.60;;;;;;;24.39;77.62;97392.81;4958030;29;20218;-58
2023/06/23 10:32:21;;;;;;;6.55;5.95;;;;;;;24.72;73.14;97398.97;4957108;29;20282;-58
2023/06/23 10:34:48;;;;;;;6.13;5.65;;;;;;;24.74;69.50;97391.47;4957748;29;20206;-58
2023/06/23 10:37:18;;;;;;;7.40;6.75;;;;;;;24.54;70.54;97396.09;4957683;29;20202;-58
2023/06/23 10:39:50;;;;;;;5.97;5.47;;;;;;;24.38;69.84;97380.31;4958738;29;20547;-58
2023/06/23 10:42:16;;;;;;;6.03;5.22;;;;;;;24.70;69.76;97382.09;4957160;29;20628;-59
2023/06/23 10:44:44;;;;;;;7.80;5.60;;;;;;;24.71;69.83;97383.78;4957366;29;20299;-58
2023/06/23 10:47:12;;;;;;;6.15;5.47;;;;;;;24.75;65.03;97392.28;4955015;28;20207;-59
2023/06/23 10:49:42;;;;;;;6.15;5.55;;;;;;;25.03;67.83;97395.53;4939105;29;20214;-59
2023/06/23 10:52:09;;;;;;;5.60;5.15;;;;;;;25.09;64.29;97380.28;4951254;29;20242;-58
2023/06/23 10:54:36;;;;;;;5.28;4.78;;;;;;;25.24;70.06;97381.66;4957943;29;20258;-59
2023/06/23 10:57:09;;;;;;;5.57;5.05;;;;;;;25.14;64.87;97378.59;4955727;29;20215;-59
2023/06/23 10:59:35;;;;;;;5.72;5.00;;;;;;;25.30;65.58;97377.25;4953659;29;20194;-59
2023/06/23 11:02:20;;;;;;;5.45;5.05;;;;;;;25.26;64.11;97373.31;4957512;29;20213;-58
2023/06/23 11:04:55;;;;;;;5.30;4.90;;;;;;;25.48;64.63;97373.78;4957832;29;20206;-59
2023/06/23 11:07:21;;;;;;;5.18;4.78;;;;;;;25.55;61.08;97372.75;4957847;29;20519;-58
2023/06/23 11:09:54;;;;;;;4.90;4.50;;;;;;;25.54;61.61;97375.69;4957235;29;20291;-57
2023/06/23 11:12:32;;;;;;;5.53;5.03;;;;;;;25.19;63.98;97367.94;4956163;29;20241;-58
2023/06/23 11:15:04;;;;;;;4.60;4.30;;;;;;;25.15;62.14;97371.31;4956627;29;20722;-58
2023/06/23 11:17:40;;;;;;;5.60;5.03;;;;;;;25.10;63.40;97365.72;4955541;29;20264;-58
2023/06/23 11:20:10;;;;;;;5.60;5.10;;;;;;;24.71;65.02;97364.84;4956320;29;20209;-58
2023/06/23 11:22:39;;;;;;;5.05;4.55;;;;;;;24.75;64.10;97371.47;4956606;29;20206;-59
2023/06/23 11:25:07;;;;;;;5.53;5.07;;;;;;;24.58;67.86;97370.31;4954432;28;20258;-58
2023/06/23 11:27:34;;;;;;;4.63;4.22;;;;;;;24.91;65.97;97359.34;4955748;29;20293;-58
2023/06/23 11:30:15;;;;;;;4.32;4.03;;;;;;;25.26;62.58;97357.06;4955101;29;20202;-58